Time,TemperatureF,DewpointF,PressureIn,WindDirection,WindDirectionDegrees,WindSpeedMPH,WindSpeedGustMPH,Humidity,HourlyPrecipIn,Conditions,Clouds,dailyrainin,SolarRadiationWatts/m^2,SoftwareType,DateUTC
2013-02-28 00:01:00,38.0,28.0,-100.00,NNW,343,6.0,9.0,66,0.00,,,0.00,0.000000,,2013-02-28 06:01:00,
2013-02-28 00:32:00,37.0,29.0,-100.00,North,11,4.0,7.0,72,0.00,,,0.00,0.000000,,2013-02-28 06:32:00,
2013-02-28 00:42:00,37.0,29.0,-100.00,North,11,4.0,7.0,72,0.00,,,0.00,0.000000,,2013-02-28 06:42:00,
2013-02-28 00:52:00,37.0,29.0,-100.00,North,11,4.0,7.0,72,0.00,,,0.00,0.000000,,2013-02-28 06:52:00,
2013-02-28 01:01:00,37.0,29.0,-100.00,North,11,4.0,7.0,72,0.00,,,0.00,0.000000,,2013-02-28 07:01:00,
2013-02-28 01:32:00,35.0,28.0,-100.00,NW,318,4.0,7.0,74,0.00,,,0.00,0.000000,,2013-02-28 07:32:00,
2013-02-28 01:42:00,35.0,28.0,-100.00,NW,318,4.0,7.0,74,0.00,,,0.00,0.000000,,2013-02-28 07:42:00,
2013-02-28 01:52:00,35.0,28.0,-100.00,NW,318,4.0,7.0,74,0.00,,,0.00,0.000000,,2013-02-28 07:52:00,
2013-02-28 02:01:00,35.0,28.0,-100.00,NW,318,4.0,7.0,74,0.00,,,0.00,0.000000,,2013-02-28 08:01:00,
2013-02-28 02:32:00,33.0,27.0,-100.00,WSW,255,5.0,6.0,78,0.00,,,0.00,0.000000,,2013-02-28 08:32:00,
2013-02-28 02:42:00,33.0,27.0,-100.00,WSW,255,5.0,6.0,78,0.00,,,0.00,0.000000,,2013-02-28 08:42:00,
2013-02-28 02:53:00,33.0,27.0,-100.00,WSW,255,5.0,6.0,78,0.00,,,0.00,0.000000,,2013-02-28 08:53:00,
2013-02-28 03:03:00,33.0,27.0,-100.00,WSW,255,5.0,6.0,78,0.00,,,0.00,0.000000,,2013-02-28 09:03:00,
2013-02-28 03:32:00,32.0,27.0,-100.00,West,271,5.0,8.0,81,0.00,,,0.00,0.000000,,2013-02-28 09:32:00,
2013-02-28 03:42:00,32.0,27.0,-100.00,West,271,5.0,8.0,81,0.00,,,0.00,0.000000,,2013-02-28 09:42:00,
2013-02-28 03:52:00,32.0,27.0,-100.00,West,271,5.0,8.0,81,0.00,,,0.00,0.000000,,2013-02-28 09:52:00,
2013-02-28 04:02:00,32.0,27.0,-100.00,West,271,5.0,8.0,81,0.00,,,0.00,0.000000,,2013-02-28 10:02:00,
2013-02-28 04:32:00,31.0,27.0,-100.00,WNW,290,7.0,9.0,84,0.00,,,0.00,0.000000,,2013-02-28 10:32:00,
2013-02-28 04:42:00,31.0,27.0,-100.00,WNW,290,7.0,9.0,84,0.00,,,0.00,0.000000,,2013-02-28 10:42:00,
2013-02-28 04:52:00,31.0,27.0,-100.00,WNW,290,7.0,9.0,84,0.00,,,0.00,0.000000,,2013-02-28 10:52:00,
2013-02-28 05:01:00,31.0,27.0,-100.00,WNW,290,7.0,9.0,84,0.00,,,0.00,0.000000,,2013-02-28 11:01:00,
2013-02-28 05:32:00,31.0,26.0,-100.00,West,279,6.0,10.0,83,0.00,,,0.00,0.000000,,2013-02-28 11:32:00,
2013-02-28 05:42:00,31.0,26.0,-100.00,West,279,6.0,10.0,83,0.00,,,0.00,0.000000,,2013-02-28 11:42:00,
2013-02-28 05:52:00,31.0,26.0,-100.00,West,279,6.0,10.0,83,0.00,,,0.00,0.000000,,2013-02-28 11:52:00,
2013-02-28 06:02:00,31.0,26.0,-100.00,West,279,6.0,10.0,83,0.00,,,0.00,0.000000,,2013-02-28 12:02:00,
2013-02-28 06:32:00,31.0,26.0,-100.00,NW,304,7.0,11.0,83,0.00,,,0.00,0.000000,,2013-02-28 12:32:00,
2013-02-28 06:42:00,31.0,26.0,-100.00,NW,304,7.0,11.0,83,0.00,,,0.00,0.000000,,2013-02-28 12:42:00,
2013-02-28 06:52:00,31.0,26.0,-100.00,NW,304,7.0,11.0,83,0.00,,,0.00,0.000000,,2013-02-28 12:52:00,
2013-02-28 07:02:00,31.0,26.0,-100.00,NW,304,7.0,11.0,83,0.00,,,0.00,0.000000,,2013-02-28 13:02:00,
2013-02-28 07:32:00,30.0,25.0,-100.00,WNW,301,6.0,12.0,83,0.00,,,0.00,1.000000,,2013-02-28 13:32:00,
2013-02-28 07:42:00,30.0,25.0,-100.00,WNW,301,6.0,12.0,83,0.00,,,0.00,1.000000,,2013-02-28 13:42:00,
2013-02-28 07:52:00,30.0,25.0,-100.00,WNW,301,6.0,12.0,83,0.00,,,0.00,1.000000,,2013-02-28 13:52:00,
2013-02-28 08:01:00,30.0,25.0,-100.00,WNW,301,6.0,12.0,83,0.00,,,0.00,1.000000,,2013-02-28 14:01:00,
2013-02-28 08:32:00,33.0,28.0,-100.00,WNW,291,5.0,9.0,80,0.00,,,0.00,103.000000,,2013-02-28 14:32:00,
2013-02-28 08:42:00,33.0,28.0,-100.00,WNW,291,5.0,9.0,80,0.00,,,0.00,103.000000,,2013-02-28 14:42:00,
2013-02-28 08:52:00,33.0,28.0,-100.00,WNW,291,5.0,9.0,80,0.00,,,0.00,103.000000,,2013-02-28 14:52:00,
2013-02-28 09:02:00,33.0,28.0,-100.00,WNW,291,5.0,9.0,80,0.00,,,0.00,103.000000,,2013-02-28 15:02:00,
2013-02-28 09:32:00,38.0,29.0,-100.00,WNW,294,8.0,11.0,70,0.00,,,-99.99,362.000000,,2013-02-28 15:32:00,
2013-02-28 09:42:00,38.0,29.0,-100.00,WNW,294,8.0,11.0,70,0.00,,,-99.99,362.000000,,2013-02-28 15:42:00,
2013-02-28 09:52:00,38.0,29.0,-100.00,WNW,294,8.0,11.0,70,0.00,,,-99.99,362.000000,,2013-02-28 15:52:00,
2013-02-28 10:02:00,38.0,29.0,-100.00,WNW,294,8.0,11.0,70,0.00,,,-99.99,362.000000,,2013-02-28 16:02:00,
2013-02-28 10:32:00,44.0,29.0,-100.00,WNW,300,9.0,14.0,55,0.00,,,0.00,607.000000,,2013-02-28 16:32:00,
2013-02-28 10:43:00,44.0,29.0,-100.00,WNW,300,9.0,14.0,55,0.00,,,0.00,607.000000,,2013-02-28 16:43:00,
2013-02-28 10:52:00,44.0,29.0,-100.00,WNW,300,9.0,14.0,55,0.00,,,0.00,607.000000,,2013-02-28 16:52:00,
2013-02-28 11:02:00,44.0,29.0,-100.00,WNW,300,9.0,14.0,55,0.00,,,0.00,607.000000,,2013-02-28 17:02:00,
2013-02-28 11:32:00,49.0,28.0,-100.00,NW,313,11.0,17.0,44,0.00,,,0.00,802.000000,,2013-02-28 17:32:00,
2013-02-28 11:42:00,49.0,28.0,-100.00,NW,313,11.0,17.0,44,0.00,,,0.00,802.000000,,2013-02-28 17:42:00,
2013-02-28 11:52:00,49.0,28.0,-100.00,NW,313,11.0,17.0,44,0.00,,,0.00,802.000000,,2013-02-28 17:52:00,
2013-02-28 12:02:00,49.0,28.0,-100.00,NW,313,11.0,17.0,44,0.00,,,0.00,802.000000,,2013-02-28 18:02:00,
2013-02-28 12:32:00,52.0,27.0,-100.00,NW,326,11.0,20.0,38,0.00,,,0.00,935.000000,,2013-02-28 18:32:00,
2013-02-28 12:42:00,52.0,27.0,-100.00,NW,326,11.0,20.0,38,0.00,,,0.00,935.000000,,2013-02-28 18:42:00,
2013-02-28 12:52:00,52.0,27.0,-100.00,NW,326,11.0,20.0,38,0.00,,,0.00,935.000000,,2013-02-28 18:52:00,
2013-02-28 13:01:00,52.0,27.0,-100.00,NW,326,11.0,20.0,38,0.00,,,0.00,935.000000,,2013-02-28 19:01:00,
2013-02-28 13:32:00,54.0,27.0,-100.00,NNW,337,12.0,18.0,35,0.00,,,0.00,994.000000,,2013-02-28 19:32:00,
2013-02-28 13:42:00,54.0,27.0,-100.00,NNW,337,12.0,18.0,35,0.00,,,0.00,994.000000,,2013-02-28 19:42:00,
2013-02-28 13:52:00,54.0,27.0,-100.00,NNW,337,12.0,18.0,35,0.00,,,0.00,994.000000,,2013-02-28 19:52:00,
2013-02-28 14:01:00,54.0,27.0,-100.00,NNW,337,12.0,18.0,35,0.00,,,0.00,994.000000,,2013-02-28 20:01:00,
2013-02-28 14:32:00,56.0,23.0,-100.00,NW,321,13.0,20.0,28,0.00,,,0.00,962.000000,,2013-02-28 20:32:00,
2013-02-28 14:42:00,56.0,23.0,-100.00,NW,321,13.0,20.0,28,0.00,,,0.00,962.000000,,2013-02-28 20:42:00,
2013-02-28 14:52:00,56.0,23.0,-100.00,NW,321,13.0,20.0,28,0.00,,,0.00,962.000000,,2013-02-28 20:52:00,
2013-02-28 15:02:00,56.0,23.0,-100.00,NW,321,13.0,20.0,28,0.00,,,0.00,962.000000,,2013-02-28 21:02:00,
2013-02-28 15:32:00,58.0,23.0,-100.00,NNW,335,11.0,22.0,26,0.00,,,0.00,850.000000,,2013-02-28 21:32:00,
2013-02-28 15:42:00,58.0,23.0,-100.00,NNW,335,11.0,22.0,26,0.00,,,0.00,850.000000,,2013-02-28 21:42:00,
2013-02-28 15:52:00,58.0,23.0,-100.00,NNW,335,11.0,22.0,26,0.00,,,0.00,850.000000,,2013-02-28 21:52:00,
2013-02-28 16:01:00,58.0,23.0,-100.00,NNW,335,11.0,22.0,26,0.00,,,0.00,850.000000,,2013-02-28 22:01:00,
2013-02-28 16:32:00,57.0,20.0,-100.00,NW,316,14.0,24.0,23,0.00,,,-99.99,685.000000,,2013-02-28 22:32:00,
2013-02-28 16:42:00,57.0,20.0,-100.00,NW,316,14.0,24.0,23,0.00,,,-99.99,685.000000,,2013-02-28 22:42:00,
2013-02-28 16:52:00,57.0,20.0,-100.00,NW,316,14.0,24.0,23,0.00,,,-99.99,685.000000,,2013-02-28 22:52:00,
2013-02-28 17:01:00,57.0,20.0,-100.00,NW,316,14.0,24.0,23,0.00,,,-99.99,685.000000,,2013-02-28 23:01:00,
2013-02-28 17:32:00,57.0,19.0,-100.00,NNW,337,13.0,21.0,22,0.00,,,0.00,480.000000,,2013-02-28 23:32:00,
2013-02-28 17:42:00,57.0,19.0,-100.00,NNW,337,13.0,21.0,22,0.00,,,0.00,480.000000,,2013-02-28 23:42:00,
2013-02-28 17:53:00,57.0,19.0,-100.00,NNW,337,13.0,21.0,22,0.00,,,0.00,480.000000,,2013-02-28 23:53:00,
2013-02-28 18:01:00,57.0,19.0,-100.00,NNW,337,13.0,21.0,22,0.00,,,0.00,480.000000,,2013-03-01 00:01:00,
2013-02-28 18:32:00,54.0,18.0,-100.00,NNW,331,9.0,22.0,24,0.00,,,0.00,222.000000,,2013-03-01 00:32:00,
2013-02-28 18:42:00,54.0,18.0,-100.00,NNW,331,9.0,22.0,24,0.00,,,0.00,222.000000,,2013-03-01 00:42:00,
2013-02-28 18:52:00,54.0,18.0,-100.00,NNW,331,9.0,22.0,24,0.00,,,0.00,222.000000,,2013-03-01 00:52:00,
2013-02-28 19:01:00,54.0,18.0,-100.00,NNW,331,9.0,22.0,24,0.00,,,0.00,222.000000,,2013-03-01 01:01:00,
2013-02-28 19:32:00,50.0,20.0,-100.00,NW,325,4.0,13.0,30,0.00,,,0.00,14.000000,,2013-03-01 01:32:00,
2013-02-28 19:42:00,50.0,20.0,-100.00,NW,325,4.0,13.0,30,0.00,,,0.00,14.000000,,2013-03-01 01:42:00,
2013-02-28 19:52:00,50.0,20.0,-100.00,NW,325,4.0,13.0,30,0.00,,,0.00,14.000000,,2013-03-01 01:52:00,
2013-02-28 20:01:00,50.0,20.0,-100.00,NW,325,4.0,13.0,30,0.00,,,0.00,14.000000,,2013-03-01 02:01:00,
2013-02-28 20:32:00,47.0,21.0,-100.00,North,353,2.0,5.0,36,0.00,,,0.00,0.000000,,2013-03-01 02:32:00,
2013-02-28 20:42:00,47.0,21.0,-100.00,North,353,2.0,5.0,36,0.00,,,0.00,0.000000,,2013-03-01 02:42:00,
2013-02-28 20:52:00,47.0,21.0,-100.00,North,353,2.0,5.0,36,0.00,,,0.00,0.000000,,2013-03-01 02:52:00,
2013-02-28 21:01:00,47.0,21.0,-100.00,North,353,2.0,5.0,36,0.00,,,0.00,0.000000,,2013-03-01 03:01:00,
2013-02-28 21:32:00,46.0,22.0,-100.00,North,1,4.0,5.0,39,0.00,,,0.00,0.000000,,2013-03-01 03:32:00,
2013-02-28 21:42:00,46.0,22.0,-100.00,North,1,4.0,5.0,39,0.00,,,0.00,0.000000,,2013-03-01 03:42:00,
2013-02-28 21:52:00,46.0,22.0,-100.00,North,1,4.0,5.0,39,0.00,,,0.00,0.000000,,2013-03-01 03:52:00,
2013-02-28 22:01:00,46.0,22.0,-100.00,North,1,4.0,5.0,39,0.00,,,0.00,0.000000,,2013-03-01 04:01:00,
2013-02-28 22:42:00,44.0,22.0,-100.00,NNE,29,4.0,7.0,42,0.00,,,0.00,0.000000,,2013-03-01 04:42:00,
2013-02-28 22:52:00,44.0,22.0,-100.00,NNE,29,4.0,7.0,42,0.00,,,0.00,0.000000,,2013-03-01 04:52:00,
2013-02-28 23:02:00,44.0,22.0,-100.00,NNE,29,4.0,7.0,42,0.00,,,0.00,0.000000,,2013-03-01 05:02:00,
2013-02-28 23:33:00,42.0,22.0,-100.00,NE,47,2.0,6.0,45,0.00,,,0.00,0.000000,,2013-03-01 05:33:00,
2013-02-28 23:42:00,42.0,22.0,-100.00,NE,47,2.0,6.0,45,0.00,,,0.00,0.000000,,2013-03-01 05:42:00,
2013-02-28 23:53:00,42.0,22.0,-100.00,NE,47,2.0,6.0,45,0.00,,,0.00,0.000000,,2013-03-01 05:53:00,